Time;durP1;ratioP1;P1;durP2;ratioP2;P2;SDS_P1;SDS_P2;PMS_P1;PMS_P2;Temp;Humidity;BMP_temperature;BMP_pressure;BME280_temperature;BME280_humidity;BME280_pressure;Samples;Min_cycle;Max_cycle;Signal;HPM_P1;HPM_P2
2022/07/22 00:00:05;;;;;;;9.80;3.38;;;;;;;16.08;100.00;102032.72;5152870;27;20103;-55
2022/07/22 00:02:33;;;;;;;8.00;3.63;;;;;;;16.13;100.00;102030.59;5171157;27;20053;-55
2022/07/22 00:05:02;;;;;;;10.23;3.22;;;;;;;16.19;100.00;102034.63;5173179;27;20476;-55
2022/07/22 00:07:30;;;;;;;10.82;2.85;;;;;;;16.12;100.00;102034.19;5172550;27;20102;-55
2022/07/22 00:09:59;;;;;;;12.75;3.28;;;;;;;16.19;100.00;102034.63;5170463;27;20042;-54
2022/07/22 00:12:28;;;;;;;9.57;3.45;;;;;;;16.26;100.00;102035.88;5173018;27;20039;-54
2022/07/22 00:14:56;;;;;;;12.50;3.70;;;;;;;16.21;100.00;102041.53;5173237;27;20121;-55
2022/07/22 00:17:26;;;;;;;10.40;3.20;;;;;;;16.12;100.00;102039.50;5172741;27;20519;-54
2022/07/22 00:19:54;;;;;;;7.85;2.55;;;;;;;16.13;100.00;102037.69;5169902;27;20052;-54
2022/07/22 00:22:22;;;;;;;11.10;2.80;;;;;;;16.13;100.00;102045.66;5171391;27;20485;-55
2022/07/22 00:24:50;;;;;;;7.72;2.83;;;;;;;16.22;100.00;102037.06;5171373;27;20500;-53
2022/07/22 00:27:20;;;;;;;8.32;2.38;;;;;;;16.26;100.00;102035.03;5170768;27;20400;-53
2022/07/22 00:29:52;;;;;;;13.18;2.75;;;;;;;16.29;100.00;102034.81;5172776;27;20042;-54
2022/07/22 00:32:20;;;;;;;7.65;2.55;;;;;;;16.35;100.00;102037.91;5173278;27;20077;-56
2022/07/22 00:34:48;;;;;;;6.10;2.50;;;;;;;16.29;100.00;102041.00;5171617;27;20056;-57
2022/07/22 00:37:16;;;;;;;6.95;2.20;;;;;;;16.30;100.00;102036.53;5169021;27;20053;-50
2022/07/22 00:39:44;;;;;;;10.40;2.60;;;;;;;16.33;100.00;102033.66;5172339;27;20302;-52
2022/07/22 00:42:12;;;;;;;8.90;2.85;;;;;;;16.31;100.00;102036.41;5151428;27;20066;-54
2022/07/22 00:44:42;;;;;;;7.70;2.72;;;;;;;16.23;100.00;102028.16;5173095;27;20061;-57
2022/07/22 00:47:11;;;;;;;9.68;2.42;;;;;;;16.16;100.00;102027.72;5175204;27;20056;-57
2022/07/22 00:49:39;;;;;;;9.13;2.83;;;;;;;16.07;100.00;102025.72;5177306;27;20074;-55
2022/07/22 00:52:08;;;;;;;10.00;2.63;;;;;;;16.04;100.00;102020.63;5177696;27;20042;-53
2022/07/22 00:54:38;;;;;;;9.52;2.80;;;;;;;15.96;100.00;102028.28;5174788;27;20046;-57
2022/07/22 00:57:06;;;;;;;6.85;2.50;;;;;;;15.96;100.00;102018.50;5174896;27;20042;-54
2022/07/22 00:59:34;;;;;;;12.57;3.20;;;;;;;16.11;100.00;102019.22;5176986;27;20054;-56
2022/07/22 01:02:04;;;;;;;9.80;3.13;;;;;;;16.15;100.00;102022.53;5175715;27;20030;-54
2022/07/22 01:04:32;;;;;;;13.23;2.58;;;;;;;16.21;100.00;102014.13;5173950;27;20077;-53
2022/07/22 01:07:00;;;;;;;7.40;2.70;;;;;;;16.25;100.00;102014.75;5175683;27;20038;-55
2022/07/22 01:09:28;;;;;;;8.15;2.50;;;;;;;16.25;100.00;102015.59;5176871;27;20484;-54
2022/07/22 01:11:56;;;;;;;9.65;2.90;;;;;;;16.34;100.00;102014.13;5173867;27;20035;-54
2022/07/22 01:14:24;;;;;;;7.47;2.35;;;;;;;16.36;100.00;102013.06;5175304;27;20046;-58
2022/07/22 01:16:53;;;;;;;8.13;2.47;;;;;;;16.35;100.00;102003.38;5176559;27;20042;-54
2022/07/22 01:19:22;;;;;;;9.25;2.75;;;;;;;16.38;100.00;102011.13;5176749;27;20093;-55
2022/07/22 01:21:52;;;;;;;11.00;2.78;;;;;;;16.36;100.00;102007.75;5176744;27;20047;-55
2022/07/22 01:24:20;;;;;;;8.63;2.45;;;;;;;16.33;100.00;102007.09;5173067;27;20156;-55
2022/07/22 01:26:48;;;;;;;12.40;3.17;;;;;;;16.41;100.00;102007.41;5174104;27;20030;-54
2022/07/22 01:29:16;;;;;;;10.63;2.63;;;;;;;16.32;100.00;102014.22;5175372;27;20094;-54
2022/07/22 01:31:45;;;;;;;8.13;2.70;;;;;;;16.31;100.00;102015.19;5173807;27;20046;-54
2022/07/22 01:34:13;;;;;;;9.30;2.83;;;;;;;16.30;100.00;102018.78;5176759;27;20068;-56
2022/07/22 01:36:41;;;;;;;7.05;2.63;;;;;;;16.35;100.00;102021.97;5176234;27;20109;-53
2022/07/22 01:39:11;;;;;;;9.85;2.53;;;;;;;16.34;100.00;102022.91;5176228;27;20087;-55
2022/07/22 01:41:39;;;;;;;8.93;3.05;;;;;;;16.41;100.00;102022.50;5176142;27;20046;-55
2022/07/22 01:44:07;;;;;;;12.88;3.15;;;;;;;16.41;100.00;102014.53;5155796;27;20133;-56
2022/07/22 01:46:36;;;;;;;9.52;2.65;;;;;;;16.37;100.00;102020.06;5173227;27;20046;-56
2022/07/22 01:49:04;;;;;;;8.30;2.75;;;;;;;16.35;100.00;102027.28;5175598;27;20563;-52
2022/07/22 01:51:33;;;;;;;7.90;3.13;;;;;;;16.36;100.00;102014.84;5172303;27;20116;-53
2022/07/22 01:54:01;;;;;;;8.05;2.58;;;;;;;16.38;100.00;102010.28;5172407;27;20061;-55
2022/07/22 01:56:30;;;;;;;7.20;2.92;;;;;;;16.41;100.00;102012.72;5174709;27;20042;-52
2022/07/22 01:58:58;;;;;;;8.98;2.80;;;;;;;16.34;100.00;102014.94;5175638;27;20042;-55
2022/07/22 02:01:28;;;;;;;6.32;2.60;;;;;;;16.34;100.00;102014.13;5172368;27;20113;-57
2022/07/22 02:03:57;;;;;;;8.73;2.85;;;;;;;16.34;100.00;102014.94;5174197;27;20034;-55
2022/07/22 02:06:25;;;;;;;11.05;2.90;;;;;;;16.32;100.00;102008.06;5175932;27;20030;-55
2022/07/22 02:08:53;;;;;;;11.15;2.97;;;;;;;16.30;100.00;102004.66;5176263;27;20034;-53
2022/07/22 02:11:21;;;;;;;11.52;3.40;;;;;;;16.23;100.00;102002.44;5176359;27;20389;-56
2022/07/22 02:13:51;;;;;;;11.70;3.83;;;;;;;16.23;100.00;101999.78;5175323;27;20430;-53
2022/07/22 02:16:19;;;;;;;12.27;3.45;;;;;;;16.19;100.00;102008.09;5155430;27;20045;-54
2022/07/22 02:18:47;;;;;;;7.90;3.10;;;;;;;16.20;100.00;102001.84;5173103;27;20066;-55
2022/07/22 02:21:15;;;;;;;10.95;3.25;;;;;;;16.09;100.00;102002.59;5172474;27;20038;-54
2022/07/22 02:23:43;;;;;;;8.88;3.08;;;;;;;16.02;100.00;102002.16;5175100;27;20153;-55
2022/07/22 02:26:12;;;;;;;10.18;2.97;;;;;;;15.98;100.00;102005.13;5174611;27;20062;-56
2022/07/22 02:28:40;;;;;;;10.98;3.30;;;;;;;16.09;100.00;101999.06;5173557;27;20094;-57
2022/07/22 02:31:09;;;;;;;9.05;2.95;;;;;;;16.09;100.00;101999.94;5173184;27;20034;-54
2022/07/22 02:33:37;;;;;;;9.27;3.05;;;;;;;16.10;100.00;101996.31;5176083;27;20129;-51
2022/07/22 02:36:06;;;;;;;7.20;2.67;;;;;;;16.14;100.00;101995.16;5172687;27;20061;-55
2022/07/22 02:38:34;;;;;;;10.40;3.15;;;;;;;16.14;100.00;101995.16;5173094;27;20042;-56
2022/07/22 02:41:02;;;;;;;10.10;3.20;;;;;;;16.25;100.00;101991.72;5172075;27;20121;-56
2022/07/22 02:43:30;;;;;;;10.18;3.08;;;;;;;16.28;100.00;101991.50;5172310;27;20046;-54
2022/07/22 02:45:58;;;;;;;11.13;3.40;;;;;;;16.22;100.00;102002.56;5175088;27;20068;-55
2022/07/22 02:48:28;;;;;;;10.75;3.30;;;;;;;16.09;100.00;101991.97;5174568;27;20038;-54
2022/07/22 02:50:56;;;;;;;11.00;3.15;;;;;;;16.10;100.00;101988.38;5168528;27;20121;-54
2022/07/22 02:53:24;;;;;;;8.30;3.28;;;;;;;16.09;100.00;101989.31;5171975;27;20038;-54
2022/07/22 02:55:52;;;;;;;7.80;2.88;;;;;;;15.98;100.00;101982.09;5174771;27;20046;-55
2022/07/22 02:58:20;;;;;;;11.45;2.83;;;;;;;16.04;100.00;101989.63;5172186;27;20440;-56
2022/07/22 03:00:49;;;;;;;12.70;3.45;;;;;;;16.01;100.00;101989.84;5175003;27;20429;-56
2022/07/22 03:03:17;;;;;;;7.47;2.85;;;;;;;16.02;100.00;101985.38;5156143;27;20050;-55
2022/07/22 03:05:46;;;;;;;7.45;3.10;;;;;;;16.11;100.00;101994.50;5172394;27;20038;-55
2022/07/22 03:08:15;;;;;;;8.80;3.63;;;;;;;16.12;100.00;101998.88;5173699;27;20049;-55
2022/07/22 03:10:42;;;;;;;7.53;3.10;;;;;;;16.17;100.00;102000.25;5172165;27;20102;-54
2022/07/22 03:13:11;;;;;;;7.78;3.15;;;;;;;16.17;100.00;101999.38;5170438;27;20102;-55
2022/07/22 03:15:39;;;;;;;8.27;3.17;;;;;;;16.25;100.00;102004.16;5155323;27;20500;-55
2022/07/22 03:18:07;;;;;;;9.43;2.80;;;;;;;16.27;100.00;102005.75;5172079;27;20061;-56
2022/07/22 03:20:35;;;;;;;11.02;3.20;;;;;;;16.25;100.00;102002.31;5170169;27;20071;-56
2022/07/22 03:23:04;;;;;;;10.40;3.40;;;;;;;16.25;100.00;102002.31;5173756;27;20052;-55
2022/07/22 03:25:33;;;;;;;7.28;3.33;;;;;;;16.27;100.00;102002.25;5174424;27;20801;-54
2022/07/22 03:28:02;;;;;;;9.23;3.13;;;;;;;16.23;100.00;102004.25;5174175;27;20529;-56
2022/07/22 03:30:30;;;;;;;9.10;3.20;;;;;;;16.18;100.00;102004.59;5154945;27;20053;-54
2022/07/22 03:32:58;;;;;;;10.52;3.22;;;;;;;16.18;100.00;102007.25;5174080;27;20042;-53
2022/07/22 03:35:26;;;;;;;7.78;3.30;;;;;;;16.12;100.00;102014.78;5169898;27;20834;-55
2022/07/22 03:37:54;;;;;;;10.93;3.60;;;;;;;16.08;100.00;102019.44;5172802;27;20042;-55
2022/07/22 03:40:23;;;;;;;8.27;2.95;;;;;;;15.99;100.00;102015.66;5172012;27;20060;-54
2022/07/22 03:42:52;;;;;;;9.68;3.33;;;;;;;15.91;100.00;102010.03;5170895;27;20049;-53
2022/07/22 03:45:20;;;;;;;13.10;3.72;;;;;;;15.87;100.00;102009.38;5154140;27;20049;-55
2022/07/22 03:47:48;;;;;;;9.43;3.50;;;;;;;15.88;100.00;102013.75;5173269;27;20048;-55
2022/07/22 03:50:16;;;;;;;8.95;3.67;;;;;;;15.95;100.00;102008.00;5173928;27;20058;-55
2022/07/22 03:52:44;;;;;;;11.40;3.50;;;;;;;16.02;100.00;102007.47;5173571;27;20046;-54
2022/07/22 03:55:12;;;;;;;11.50;3.60;;;;;;;16.07;100.00;102001.81;5173649;27;20042;-55
2022/07/22 03:57:41;;;;;;;10.18;3.88;;;;;;;16.11;100.00;101998.00;5154700;27;20046;-55
2022/07/22 04:00:10;;;;;;;8.90;3.50;;;;;;;16.11;100.00;101998.00;5174021;27;20038;-55
2022/07/22 04:02:38;;;;;;;9.20;3.30;;;;;;;16.13;100.00;101997.88;5170351;27;20052;-55
2022/07/22 04:05:07;;;;;;;11.55;3.90;;;;;;;16.12;100.00;101996.22;5169653;27;20401;-54
2022/07/22 04:07:35;;;;;;;9.07;4.05;;;;;;;16.12;100.00;101996.22;5172778;27;20081;-55
2022/07/22 04:10:07;;;;;;;11.57;4.15;;;;;;;16.23;100.00;101999.78;5172771;27;20408;-54
2022/07/22 04:12:37;;;;;;;12.27;4.45;;;;;;;16.27;100.00;102000.44;5172273;27;20069;-56
2022/07/22 04:15:08;;;;;;;10.38;4.03;;;;;;;16.28;100.00;102001.25;5173074;27;20050;-54
2022/07/22 04:17:37;;;;;;;11.10;4.22;;;;;;;16.27;100.00;102005.75;5174763;27;20060;-55
2022/07/22 04:20:06;;;;;;;13.77;4.78;;;;;;;16.25;100.00;102007.63;5177464;27;20133;-52
2022/07/22 04:22:34;;;;;;;12.45;3.92;;;;;;;16.21;100.00;102004.38;5176443;27;20038;-55
2022/07/22 04:25:02;;;;;;;13.38;4.43;;;;;;;16.09;100.00;102012.31;5175801;27;20129;-56
2022/07/22 04:27:30;;;;;;;9.07;4.05;;;;;;;16.10;100.00;102003.41;5177434;27;20053;-54
2022/07/22 04:29:58;;;;;;;10.75;4.05;;;;;;;16.01;100.00;102007.59;5178511;27;20396;-54
2022/07/22 04:32:28;;;;;;;10.45;3.80;;;;;;;16.00;100.00;102005.88;5178909;27;20038;-54
2022/07/22 04:34:56;;;;;;;12.98;3.45;;;;;;;15.87;100.00;102006.72;5177291;27;20038;-56
2022/07/22 04:37:24;;;;;;;10.65;3.10;;;;;;;15.79;100.00;102001.06;5157957;27;20034;-56
2022/07/22 04:39:52;;;;;;;10.20;2.60;;;;;;;15.78;100.00;102001.19;5177501;27;20658;-55
2022/07/22 04:42:21;;;;;;;7.65;2.60;;;;;;;15.85;100.00;102000.66;5176794;27;20054;-56
2022/07/22 04:44:49;;;;;;;9.90;3.05;;;;;;;15.82;100.00;102002.72;5177039;27;20067;-53
2022/07/22 04:47:17;;;;;;;8.38;2.63;;;;;;;15.86;100.00;102005.03;5178008;27;20053;-55
2022/07/22 04:49:46;;;;;;;5.88;2.13;;;;;;;15.88;100.00;102000.47;5177878;27;20037;-54
2022/07/22 04:52:15;;;;;;;8.05;2.10;;;;;;;15.93;100.00;101992.19;5177191;27;20764;-54
2022/07/22 04:54:43;;;;;;;8.35;2.60;;;;;;;15.93;100.00;102002.78;5176972;27;20384;-56
2022/07/22 04:57:11;;;;;;;8.50;2.50;;;;;;;15.96;100.00;102007.88;5176728;27;20060;-55
2022/07/22 04:59:39;;;;;;;8.70;2.60;;;;;;;15.98;100.00;102002.47;5177351;27;20741;-56
2022/07/22 05:02:07;;;;;;;6.50;2.50;;;;;;;15.99;100.00;102007.69;5177172;27;20038;-57
2022/07/22 05:04:35;;;;;;;9.57;2.50;;;;;;;16.00;100.00;102003.22;5176869;27;20037;-55
2022/07/22 05:07:05;;;;;;;9.63;2.75;;;;;;;16.04;100.00;101996.75;5176894;27;20422;-55
2022/07/22 05:09:33;;;;;;;11.73;2.67;;;;;;;16.02;100.00;101996.84;5177256;27;20050;-57
2022/07/22 05:12:01;;;;;;;9.25;2.53;;;;;;;15.99;100.00;101993.56;5155517;27;20042;-56
2022/07/22 05:14:29;;;;;;;10.07;2.30;;;;;;;16.03;100.00;101998.56;5176697;27;20481;-58
2022/07/22 05:16:57;;;;;;;11.90;2.90;;;;;;;16.04;100.00;101997.59;5176419;27;20035;-56
2022/07/22 05:19:25;;;;;;;14.20;3.00;;;;;;;16.07;100.00;101999.19;5176457;27;20494;-57
2022/07/22 05:21:53;;;;;;;4.90;1.77;;;;;;;16.10;100.00;101992.81;5175895;27;20050;-54
2022/07/22 05:24:23;;;;;;;8.73;2.15;;;;;;;16.07;100.00;102004.47;5173920;27;20058;-55
2022/07/22 05:26:51;;;;;;;8.10;2.20;;;;;;;16.13;100.00;101997.88;5172707;27;20492;-55
2022/07/22 05:29:19;;;;;;;6.03;1.95;;;;;;;16.06;100.00;101997.50;5174378;27;20039;-58
2022/07/22 05:31:47;;;;;;;12.00;2.70;;;;;;;16.04;100.00;102002.88;5173502;27;20050;-55
2022/07/22 05:34:16;;;;;;;8.98;2.30;;;;;;;16.20;100.00;102004.47;5157909;27;20066;-55
2022/07/22 05:36:44;;;;;;;7.70;2.40;;;;;;;16.17;100.00;102004.69;5176381;27;20549;-55
2022/07/22 05:39:12;;;;;;;8.45;1.90;;;;;;;16.18;100.00;102001.94;5176319;27;20046;-57
2022/07/22 05:41:41;;;;;;;7.50;2.03;;;;;;;16.20;100.00;102002.66;5171956;27;20066;-54
2022/07/22 05:44:09;;;;;;;8.65;2.47;;;;;;;16.23;100.00;101999.78;5173906;27;20481;-51
2022/07/22 05:46:39;;;;;;;10.02;2.10;;;;;;;16.26;100.00;102006.69;5175740;27;20049;-53
2022/07/22 05:49:07;;;;;;;9.52;2.20;;;;;;;16.28;100.00;102006.56;5173191;27;20044;-55
2022/07/22 05:51:35;;;;;;;8.77;1.95;;;;;;;16.32;100.00;102006.25;5172544;27;20050;-53
2022/07/22 05:54:04;;;;;;;6.20;1.75;;;;;;;16.34;100.00;102004.34;5176197;27;20030;-52
2022/07/22 05:56:32;;;;;;;5.05;1.70;;;;;;;16.40;100.00;102008.34;5176032;27;20038;-58
2022/07/22 05:59:01;;;;;;;9.30;2.05;;;;;;;16.44;100.00;102006.34;5176107;27;20511;-58
2022/07/22 06:01:29;;;;;;;8.90;2.10;;;;;;;16.45;100.00;102008.03;5175192;27;20048;-53
2022/07/22 06:03:57;;;;;;;5.40;1.80;;;;;;;16.53;100.00;102014.47;5174568;27;20064;-54
2022/07/22 06:06:25;;;;;;;4.55;1.83;;;;;;;16.51;100.00;102010.25;5172578;27;20042;-53
2022/07/22 06:08:53;;;;;;;8.52;2.20;;;;;;;16.50;100.00;102020.03;5173030;27;20543;-54
2022/07/22 06:11:22;;;;;;;8.20;1.90;;;;;;;16.54;100.00;102020.66;5172469;27;20425;-58
2022/07/22 06:13:50;;;;;;;11.48;2.63;;;;;;;16.52;100.00;102019.91;5173283;27;20045;-54
2022/07/22 06:16:23;;;;;;;4.15;2.08;;;;;;;16.54;100.00;102013.53;5175853;27;20031;-57
2022/07/22 06:18:54;;;;;;;8.10;2.40;;;;;;;16.63;100.00;102013.81;5158938;27;20062;-53
2022/07/22 06:21:23;;;;;;;7.35;1.70;;;;;;;16.66;100.00;102017.13;5176055;27;20069;-54
2022/07/22 06:23:51;;;;;;;6.15;1.73;;;;;;;16.64;100.00;102015.53;5176489;27;20072;-54
2022/07/22 06:26:19;;;;;;;6.28;1.70;;;;;;;16.72;100.00;102021.97;5176550;27;20046;-58
2022/07/22 06:28:47;;;;;;;5.30;1.50;;;;;;;16.68;100.00;102027.63;5175653;27;20077;-57
2022/07/22 06:31:16;;;;;;;10.15;1.85;;;;;;;16.74;100.00;102019.19;5173677;27;20059;-58
2022/07/22 06:33:46;;;;;;;7.68;1.95;;;;;;;16.78;100.00;102022.47;5175597;27;20045;-59
2022/07/22 06:36:14;;;;;;;8.02;1.77;;;;;;;16.86;100.00;102018.28;5176318;27;20071;-55
2022/07/22 06:38:42;;;;;;;8.68;2.05;;;;;;;16.97;100.00;102014.03;5176499;27;20046;-55
2022/07/22 06:41:10;;;;;;;6.15;1.83;;;;;;;16.99;100.00;102010.31;5175108;27;20118;-58
2022/07/22 06:43:38;;;;;;;9.48;2.47;;;;;;;17.02;100.00;102010.06;5173687;27;20095;-58
2022/07/22 06:46:06;;;;;;;5.80;1.60;;;;;;;17.04;100.00;102010.81;5175011;27;20118;-58
2022/07/22 06:48:34;;;;;;;6.55;2.30;;;;;;;17.06;100.00;102014.19;5176241;27;20046;-54
2022/07/22 06:51:04;;;;;;;6.57;1.60;;;;;;;17.10;100.00;102012.19;5176024;27;20092;-58
2022/07/22 06:53:33;;;;;;;7.68;2.20;;;;;;;17.05;100.00;102011.66;5176113;27;20044;-53
2022/07/22 06:56:01;;;;;;;8.30;1.70;;;;;;;17.13;100.00;102008.44;5176142;27;20044;-56
2022/07/22 06:58:34;;;;;;;9.30;2.30;;;;;;;17.13;100.00;102013.75;5175980;27;20038;-59
2022/07/22 07:01:02;;;;;;;6.18;2.10;;;;;;;17.13;100.00;102013.75;5157303;27;20251;-54
2022/07/22 07:03:30;;;;;;;8.15;1.77;;;;;;;17.26;100.00;102003.91;5157336;27;20050;-51
2022/07/22 07:06:04;;;;;;;6.50;1.70;;;;;;;17.31;100.00;102007.03;5175294;27;20046;-59
2022/07/22 07:08:32;;;;;;;6.75;1.88;;;;;;;17.33;100.00;102005.13;5173425;27;20054;-58
2022/07/22 07:11:00;;;;;;;5.60;1.67;;;;;;;17.45;100.00;102003.38;5174400;27;20437;-57
2022/07/22 07:13:29;;;;;;;3.25;1.30;;;;;;;17.53;100.00;101995.66;5175653;27;20084;-56
2022/07/22 07:15:57;;;;;;;9.43;2.28;;;;;;;17.51;100.00;101997.56;5175525;27;20077;-52
2022/07/22 07:18:25;;;;;;;4.97;1.60;;;;;;;17.57;100.00;101997.09;5175644;27;20406;-58
2022/07/22 07:20:54;;;;;;;6.55;1.40;;;;;;;17.62;100.00;102004.72;5173612;27;20045;-54
2022/07/22 07:23:23;;;;;;;7.63;1.58;;;;;;;17.66;100.00;101998.19;5172825;27;20417;-59
2022/07/22 07:25:52;;;;;;;5.55;1.38;;;;;;;17.74;100.00;102001.09;5174706;27;20034;-54
2022/07/22 07:28:21;;;;;;;6.53;1.58;;;;;;;17.72;100.00;102002.19;5174897;27;20046;-58
2022/07/22 07:30:51;;;;;;;9.05;1.58;;;;;;;17.78;97.46;102006.19;5174845;27;20121;-55
2022/07/22 07:33:19;;;;;;;6.32;1.90;;;;;;;17.84;98.88;102000.41;5172930;27;20039;-58
2022/07/22 07:35:48;;;;;;;5.15;1.50;;;;;;;18.00;98.32;102000.94;5153902;27;20039;-59
2022/07/22 07:38:16;;;;;;;9.52;1.50;;;;;;;18.04;98.40;101999.72;5174698;27;20042;-52
2022/07/22 07:40:45;;;;;;;6.53;1.80;;;;;;;18.07;100.00;101998.63;5174586;27;20054;-59
2022/07/22 07:43:13;;;;;;;4.65;1.48;;;;;;;18.14;96.15;101999.81;5174441;27;20528;-60
2022/07/22 07:45:42;;;;;;;4.50;1.38;;;;;;;18.18;97.61;102003.09;5174914;27;20042;-54
2022/07/22 07:48:10;;;;;;;7.57;1.58;;;;;;;18.20;94.06;102009.13;5175104;27;20042;-59
2022/07/22 07:50:39;;;;;;;6.30;1.85;;;;;;;18.17;97.18;102009.38;5174990;27;20034;-51
2022/07/22 07:53:07;;;;;;;7.45;1.85;;;;;;;18.16;96.58;102008.56;5172982;27;20046;-58
2022/07/22 07:55:37;;;;;;;4.97;1.80;;;;;;;18.33;96.03;102017.84;5172317;27;20049;-53
2022/07/22 07:58:07;;;;;;;6.45;1.85;;;;;;;18.36;97.97;102012.28;5175224;27;20438;-53
2022/07/22 08:00:36;;;;;;;6.15;1.35;;;;;;;18.37;94.69;102013.97;5174938;27;20127;-52
2022/07/22 08:03:04;;;;;;;9.55;1.63;;;;;;;18.39;95.50;102012.03;5174715;27;20038;-58
2022/07/22 08:05:34;;;;;;;6.57;1.70;;;;;;;18.33;92.66;102014.34;5175035;27;20042;-54
2022/07/22 08:08:02;;;;;;;4.38;1.17;;;;;;;18.45;93.58;102023.16;5172969;27;20053;-53
2022/07/22 08:10:38;;;;;;;5.85;1.88;;;;;;;18.53;95.76;102015.44;5172555;27;20172;-57
2022/07/22 08:13:26;;;;;;;5.10;1.40;;;;;;;18.59;92.31;102009.59;5174548;27;20058;-59
2022/07/22 08:15:55;;;;;;;8.48;1.50;;;;;;;18.70;93.26;102011.38;5174733;27;20422;-54
2022/07/22 08:18:26;;;;;;;8.02;1.65;;;;;;;18.57;91.33;102006.22;5174836;27;20510;-59
2022/07/22 08:20:54;;;;;;;6.90;1.52;;;;;;;18.57;92.88;102011.53;5174514;27;20050;-58
2022/07/22 08:23:22;;;;;;;6.90;1.65;;;;;;;18.67;95.90;102011.63;5174622;27;20061;-59
2022/07/22 08:25:50;;;;;;;6.43;1.60;;;;;;;18.61;95.38;102007.66;5174718;27;20125;-52
2022/07/22 08:28:18;;;;;;;6.88;1.80;;;;;;;18.64;96.44;102020.72;5174828;27;20042;-54
2022/07/22 08:30:48;;;;;;;5.65;1.55;;;;;;;18.69;94.89;102020.34;5174908;27;20090;-59
2022/07/22 08:33:16;;;;;;;5.80;1.30;;;;;;;18.71;93.71;102021.91;5175147;27;20129;-58
2022/07/22 08:35:44;;;;;;;7.38;1.83;;;;;;;18.77;93.87;102022.38;5155912;27;20070;-53
2022/07/22 08:38:12;;;;;;;6.43;1.65;;;;;;;18.84;92.91;102015.56;5174439;27;20045;-53
2022/07/22 08:40:40;;;;;;;7.03;1.40;;;;;;;18.82;92.40;102005.03;5172789;27;20063;-52
2022/07/22 08:43:08;;;;;;;6.13;1.52;;;;;;;18.72;93.21;102007.63;5171557;27;20060;-59
2022/07/22 08:45:37;;;;;;;4.70;1.90;;;;;;;18.68;93.92;102003.50;5174037;27;20050;-59
2022/07/22 08:48:06;;;;;;;4.47;1.30;;;;;;;18.76;92.62;102000.22;5173991;27;20050;-59
2022/07/22 08:50:35;;;;;;;5.40;1.55;;;;;;;18.74;91.20;102008.31;5170797;27;20070;-53
2022/07/22 08:53:04;;;;;;;4.20;1.42;;;;;;;18.90;93.09;101997.28;5154251;27;20098;-55
2022/07/22 08:55:32;;;;;;;6.28;2.03;;;;;;;18.99;94.13;101989.50;5155730;27;20516;-59
2022/07/22 08:58:00;;;;;;;6.00;1.70;;;;;;;19.03;93.79;101981.16;5174161;27;20038;-52
2022/07/22 09:00:29;;;;;;;8.63;2.22;;;;;;;19.22;91.92;101991.13;5174252;27;20509;-50
2022/07/22 09:02:57;;;;;;;3.30;1.30;;;;;;;19.25;89.88;101990.84;5173242;27;20060;-58
2022/07/22 09:05:34;;;;;;;4.38;1.50;;;;;;;19.52;91.30;101991.28;5171981;27;20088;-59
2022/07/22 09:08:12;;;;;;;10.43;1.75;;;;;;;19.77;89.38;101998.06;5177610;27;20129;-51
2022/07/22 09:10:40;;;;;;;7.35;1.85;;;;;;;19.84;89.95;101995.75;5177891;27;20565;-54
2022/07/22 09:13:10;;;;;;;5.72;1.75;;;;;;;19.95;91.11;102000.97;5178071;27;20065;-59
2022/07/22 09:15:47;;;;;;;7.40;1.65;;;;;;;20.10;87.03;101996.97;5178124;27;20046;-59
2022/07/22 09:18:15;;;;;;;9.25;1.95;;;;;;;20.27;84.23;101994.63;5177948;27;20050;-54
2022/07/22 09:20:45;;;;;;;6.75;1.50;;;;;;;20.17;81.63;101999.94;5177903;27;20046;-59
2022/07/22 09:23:14;;;;;;;4.88;1.30;;;;;;;20.41;79.27;101983.56;5177428;27;20056;-54
2022/07/22 09:25:43;;;;;;;5.35;1.70;;;;;;;20.43;80.64;101986.09;5177897;27;20433;-58
2022/07/22 09:28:14;;;;;;;8.57;1.77;;;;;;;20.68;84.28;101987.44;5177525;27;20141;-59
2022/07/22 09:30:50;;;;;;;6.22;1.77;;;;;;;20.73;78.59;101987.84;5177947;27;20042;-59
2022/07/22 09:33:21;;;;;;;6.65;1.70;;;;;;;20.87;78.91;101981.25;5177379;27;20078;-53
2022/07/22 09:35:51;;;;;;;6.25;1.60;;;;;;;21.01;79.47;101984.50;5177383;27;20050;-59
2022/07/22 09:38:28;;;;;;;6.05;1.63;;;;;;;21.13;76.83;101986.03;5177676;27;20038;-59
2022/07/22 09:40:56;;;;;;;7.38;1.33;;;;;;;21.06;75.94;101991.09;5176009;27;20516;-54
2022/07/22 09:43:28;;;;;;;7.97;1.67;;;;;;;21.28;76.44;101991.78;5156174;27;20061;-53
2022/07/22 09:45:58;;;;;;;5.28;1.48;;;;;;;21.48;75.52;101986.44;5177284;27;20406;-52
2022/07/22 09:48:27;;;;;;;5.47;1.70;;;;;;;21.42;75.00;101990.53;5177451;27;20041;-58
2022/07/22 09:50:57;;;;;;;7.97;1.88;;;;;;;21.32;74.81;101987.84;5157104;27;20441;-59
2022/07/22 09:53:28;;;;;;;5.57;1.60;;;;;;;21.31;74.38;101979.97;5174581;27;20050;-59
2022/07/22 09:55:57;;;;;;;6.13;1.70;;;;;;;21.42;75.83;101982.50;5176789;27;20050;-54
2022/07/22 09:58:26;;;;;;;5.90;1.65;;;;;;;21.56;73.78;101974.03;5177066;27;20050;-58
2022/07/22 10:00:58;;;;;;;6.50;1.80;;;;;;;21.71;74.43;101974.41;5177179;27;20504;-59
2022/07/22 10:03:28;;;;;;;6.75;1.70;;;;;;;21.84;71.82;101984.81;5176548;27;20441;-58
2022/07/22 10:05:59;;;;;;;7.05;1.67;;;;;;;21.88;73.41;101982.66;5172860;27;20065;-59
2022/07/22 10:08:28;;;;;;;7.28;1.85;;;;;;;21.97;72.39;101971.06;5176101;27;20042;-59
2022/07/22 10:11:00;;;;;;;6.43;1.77;;;;;;;22.01;72.13;101968.94;5176648;27;20042;-54
2022/07/22 10:13:28;;;;;;;4.83;1.60;;;;;;;22.02;69.41;101979.50;5176371;27;20054;-59
2022/07/22 10:15:57;;;;;;;4.45;1.70;;;;;;;22.11;70.09;101969.72;5173472;27;20046;-53
2022/07/22 10:18:29;;;;;;;7.57;1.52;;;;;;;22.40;68.60;101964.25;5175273;27;20041;-59
2022/07/22 10:21:06;;;;;;;5.45;1.63;;;;;;;22.38;67.58;101968.06;5157769;27;20038;-52
2022/07/22 10:23:57;;;;;;;5.75;1.70;;;;;;;22.29;65.60;101969.75;5176585;27;20128;-58
2022/07/22 10:26:47;;;;;;;6.07;1.65;;;;;;;22.32;66.58;101964.13;5176603;27;20096;-54
2022/07/22 10:29:26;;;;;;;3.92;1.60;;;;;;;22.38;68.18;101963.53;5175374;27;20057;-54
2022/07/22 10:32:25;;;;;;;6.40;1.50;;;;;;;22.69;68.66;101962.38;5173796;27;20046;-55
2022/07/22 10:35:24;;;;;;;8.88;2.13;;;;;;;22.59;64.67;101967.78;5176456;27;20047;-60
2022/07/22 10:38:00;;;;;;;5.78;1.85;;;;;;;22.88;66.84;101964.03;5157558;27;20043;-57
2022/07/22 10:40:30;;;;;;;5.30;1.70;;;;;;;23.02;65.54;101971.53;5176470;27;20447;-59
2022/07/22 10:43:20;;;;;;;4.68;1.80;;;;;;;23.09;60.67;101961.03;5176243;27;20050;-54
2022/07/22 10:45:53;;;;;;;5.07;1.55;;;;;;;23.25;63.35;101963.03;5167742;27;20058;-55
2022/07/22 10:48:24;;;;;;;4.18;1.40;;;;;;;23.06;66.83;101967.53;5173831;27;20060;-55
2022/07/22 10:50:56;;;;;;;5.28;1.48;;;;;;;23.31;66.37;101967.75;5175955;27;20121;-59
2022/07/22 10:53:40;;;;;;;5.68;1.55;;;;;;;23.28;62.90;101955.47;5157516;27;20054;-56
2022/07/22 10:56:15;;;;;;;3.67;1.33;;;;;;;23.34;63.57;101956.72;5157380;27;20058;-54
2022/07/22 10:58:51;;;;;;;3.90;1.52;;;;;;;23.22;63.26;101960.63;5176111;27;20042;-53
2022/07/22 11:01:21;;;;;;;4.15;1.50;;;;;;;23.50;62.07;101957.81;5176187;27;20050;-59
2022/07/22 11:03:50;;;;;;;6.25;1.73;;;;;;;23.22;60.41;101966.00;5175651;27;20046;-54
2022/07/22 11:06:25;;;;;;;3.10;1.40;;;;;;;22.86;61.43;101960.66;5175747;27;20120;-54
2022/07/22 11:08:57;;;;;;;4.00;1.58;;;;;;;23.10;64.38;101957.34;5175728;27;20042;-59
2022/07/22 11:11:34;;;;;;;4.65;1.65;;;;;;;22.93;61.73;101961.72;5175715;27;20046;-55
2022/07/22 11:14:02;;;;;;;5.30;1.58;;;;;;;22.86;63.17;101955.28;5173696;27;20046;-57
2022/07/22 11:16:30;;;;;;;5.65;1.55;;;;;;;23.17;62.67;101952.22;5155052;27;20087;-60
2022/07/22 11:19:02;;;;;;;4.88;1.33;;;;;;;23.15;62.14;101949.72;5174758;27;20052;-60
2022/07/22 11:21:34;;;;;;;5.07;1.67;;;;;;;22.71;61.67;101955.81;5171306;27;20045;-59
2022/07/22 11:24:13;;;;;;;4.18;1.48;;;;;;;22.89;62.24;101954.97;5175304;27;20051;-56
2022/07/22 11:26:48;;;;;;;5.95;1.80;;;;;;;22.99;62.03;101944.16;5175456;27;20071;-54
2022/07/22 11:29:24;;;;;;;5.50;1.60;;;;;;;23.22;58.73;101940.03;5176203;27;20038;-52